Time;durP1;ratioP1;P1;durP2;ratioP2;P2;SDS_P1;SDS_P2;PMS_P1;PMS_P2;Temp;Humidity;BMP_temperature;BMP_pressure;BME280_temperature;BME280_humidity;BME280_pressure;Samples;Min_cycle;Max_cycle;Signal;HPM_P1;HPM_P2
2024/01/11 00:02:24;;;;;;;7.00;3.60;;;;;;;-8.38;74.47;96698.95;110616;1274;22409;-78
2024/01/11 00:04:52;;;;;;;9.10;3.90;;;;;;;-8.38;74.34;96703.70;110539;1272;22206;-78
2024/01/11 00:07:21;;;;;;;7.10;4.10;;;;;;;-8.34;74.45;96703.11;110563;1274;22811;-77
2024/01/11 00:09:49;;;;;;;7.50;3.90;;;;;;;-8.32;74.35;96705.86;110620;1274;22801;-78
2024/01/11 00:12:17;;;;;;;6.40;3.60;;;;;;;-8.26;74.50;96705.75;110588;1274;22183;-78
2024/01/11 00:14:45;;;;;;;7.00;3.60;;;;;;;-8.17;74.67;96704.33;110606;1274;22852;-78
2024/01/11 00:17:13;;;;;;;7.50;3.50;;;;;;;-8.15;74.28;96701.41;110597;1274;22192;-78
2024/01/11 00:19:42;;;;;;;6.70;4.10;;;;;;;-8.12;74.17;96702.14;110554;1274;22116;-78
2024/01/11 00:22:10;;;;;;;6.80;4.30;;;;;;;-8.23;73.99;96703.27;110637;1274;22437;-78
2024/01/11 00:24:38;;;;;;;18.60;10.00;;;;;;;-8.34;74.19;96703.09;110593;1274;22155;-77
2024/01/11 00:27:07;;;;;;;19.20;10.40;;;;;;;-8.37;74.15;96700.22;110633;1260;22150;-78
2024/01/11 00:29:38;;;;;;;4.40;2.90;;;;;;;-8.46;73.80;96705.40;110608;1274;22312;-78
2024/01/11 00:32:06;;;;;;;7.20;3.50;;;;;;;-8.38;74.81;96704.04;110582;1274;22946;-77
2024/01/11 00:34:35;;;;;;;7.80;3.40;;;;;;;-8.25;74.75;96700.86;110618;1274;22233;-78
2024/01/11 00:37:04;;;;;;;7.90;3.70;;;;;;;-8.18;74.50;96698.82;110542;1274;22191;-78
2024/01/11 00:39:32;;;;;;;7.30;3.80;;;;;;;-8.10;74.13;96698.17;110594;1274;22130;-78
2024/01/11 00:42:00;;;;;;;7.60;4.00;;;;;;;-8.14;73.59;96697.35;110621;1274;22162;-78
2024/01/11 00:44:29;;;;;;;7.60;3.80;;;;;;;-8.09;74.07;96697.20;110599;1274;22228;-78
2024/01/11 00:46:57;;;;;;;7.80;4.20;;;;;;;-8.00;74.31;96697.46;110649;1274;22303;-77
2024/01/11 00:49:26;;;;;;;6.50;3.80;;;;;;;-7.93;74.12;96692.66;110486;1274;22198;-77
2024/01/11 00:51:54;;;;;;;6.90;3.20;;;;;;;-8.01;72.98;96692.67;110609;1274;22793;-78
2024/01/11 00:54:23;;;;;;;5.10;3.00;;;;;;;-8.07;73.12;96693.27;110606;1274;22168;-78
2024/01/11 00:56:51;;;;;;;4.70;2.90;;;;;;;-8.29;72.27;96695.98;110632;1274;22930;-78
2024/01/11 00:59:20;;;;;;;4.50;2.40;;;;;;;-8.54;72.39;96701.05;110606;1274;22292;-77
2024/01/11 01:01:48;;;;;;;12.00;5.90;;;;;;;-8.62;72.99;96702.86;110601;1274;22131;-77
2024/01/11 01:04:17;;;;;;;4.60;2.40;;;;;;;-8.61;73.06;96704.10;110599;1274;22190;-77
2024/01/11 01:06:45;;;;;;;6.20;2.40;;;;;;;-8.67;73.13;96698.77;110553;1274;22152;-77
2024/01/11 01:09:13;;;;;;;4.80;2.70;;;;;;;-8.86;73.35;96701.83;110630;1274;22258;-78
2024/01/11 01:11:41;;;;;;;6.80;3.20;;;;;;;-9.03;74.22;96705.88;110610;1274;22096;-78
2024/01/11 01:14:10;;;;;;;6.00;3.10;;;;;;;-9.11;74.56;96702.02;110597;1274;22144;-77
2024/01/11 01:16:38;;;;;;;5.80;3.10;;;;;;;-9.01;75.16;96700.38;110530;1274;22206;-78
2024/01/11 01:19:06;;;;;;;5.60;2.40;;;;;;;-8.91;74.89;96694.48;110617;1274;22905;-78
2024/01/11 01:21:34;;;;;;;4.60;2.60;;;;;;;-8.78;74.93;96690.33;110647;1274;22177;-77
2024/01/11 01:24:03;;;;;;;4.80;2.60;;;;;;;-8.68;74.80;96685.54;110581;1274;22139;-78
2024/01/11 01:26:31;;;;;;;4.90;3.10;;;;;;;-8.66;74.17;96688.74;110557;1274;22257;-78
2024/01/11 01:28:59;;;;;;;12.80;6.30;;;;;;;-8.70;74.40;96680.98;110585;1274;22145;-77
2024/01/11 01:31:28;;;;;;;11.40;5.70;;;;;;;-8.68;74.54;96677.85;110602;1274;22666;-77
2024/01/11 01:33:56;;;;;;;4.80;2.70;;;;;;;-8.78;73.71;96676.98;110619;1274;22162;-77
2024/01/11 01:36:24;;;;;;;4.30;2.20;;;;;;;-8.84;73.70;96672.78;110549;1274;22314;-77
2024/01/11 01:38:52;;;;;;;4.00;1.90;;;;;;;-8.87;73.81;96664.59;110602;1274;22788;-77
2024/01/11 01:41:21;;;;;;;5.90;3.30;;;;;;;-8.99;73.51;96662.87;110577;1274;22106;-77
2024/01/11 01:43:49;;;;;;;4.90;2.20;;;;;;;-9.13;73.42;96666.74;110626;1274;22729;-77
2024/01/11 01:46:23;;;;;;;7.00;3.10;;;;;;;-9.25;73.71;96669.27;110598;1274;22173;-77
2024/01/11 01:48:57;;;;;;;3.30;2.10;;;;;;;-9.32;74.67;96666.05;110623;1274;22152;-77
2024/01/11 01:51:28;;;;;;;2.70;1.70;;;;;;;-9.29;74.93;96666.64;110580;1274;22133;-77
2024/01/11 01:53:57;;;;;;;3.40;1.90;;;;;;;-9.14;75.63;96656.67;110506;1274;22094;-77
2024/01/11 01:56:26;;;;;;;3.70;1.90;;;;;;;-9.01;74.97;96655.58;110640;1274;22849;-77
2024/01/11 01:58:55;;;;;;;3.10;1.80;;;;;;;-8.91;75.23;96650.66;110620;1274;22135;-78
2024/01/11 02:01:25;;;;;;;3.70;1.90;;;;;;;-8.86;74.49;96654.45;110613;1274;22177;-77
2024/01/11 02:03:54;;;;;;;3.10;1.80;;;;;;;-8.99;73.61;96648.73;110606;1274;22774;-77
2024/01/11 02:06:26;;;;;;;2.50;1.60;;;;;;;-9.05;73.74;96646.77;110551;1274;22112;-78
2024/01/11 02:08:56;;;;;;;3.40;1.60;;;;;;;-9.17;73.60;96648.45;110635;1274;22130;-77
2024/01/11 02:11:24;;;;;;;5.80;3.10;;;;;;;-9.26;74.54;96651.33;110535;1274;22169;-77
2024/01/11 02:13:53;;;;;;;7.20;4.10;;;;;;;-9.23;74.92;96645.60;110595;1274;22881;-77
2024/01/11 02:16:21;;;;;;;3.10;1.70;;;;;;;-9.18;74.79;96640.99;110594;1274;22107;-77
2024/01/11 02:18:50;;;;;;;3.30;1.70;;;;;;;-9.08;75.16;96627.79;110606;1274;22177;-77
2024/01/11 02:21:18;;;;;;;3.40;1.40;;;;;;;-8.94;75.13;96621.10;110577;1274;22350;-77
2024/01/11 02:24:06;;;;;;;3.70;1.40;;;;;;;-8.94;74.14;96621.98;110569;1274;22292;-77
2024/01/11 02:26:35;;;;;;;3.30;1.40;;;;;;;-8.87;74.43;96607.44;110637;1274;22151;-77
2024/01/11 02:29:03;;;;;;;12.40;6.60;;;;;;;-8.94;73.10;96606.58;110603;1260;22121;-77
2024/01/11 02:31:31;;;;;;;12.40;6.90;;;;;;;-8.95;73.80;96608.23;110555;1274;22176;-77
2024/01/11 02:33:59;;;;;;;12.50;7.40;;;;;;;-8.92;73.54;96599.77;110622;1274;22137;-77
2024/01/11 02:36:28;;;;;;;3.30;1.70;;;;;;;-9.01;73.06;96598.60;110600;1274;22090;-77
2024/01/11 02:38:56;;;;;;;3.40;1.50;;;;;;;-8.97;73.94;96596.15;110605;1274;22126;-77
2024/01/11 02:41:25;;;;;;;2.00;1.20;;;;;;;-8.92;73.89;96589.39;110614;1274;22307;-77
2024/01/11 02:43:54;;;;;;;2.80;1.40;;;;;;;-8.88;73.73;96582.13;110620;1274;22141;-77
2024/01/11 02:46:23;;;;;;;2.50;1.30;;;;;;;-8.89;73.33;96579.52;110547;1274;22181;-77
2024/01/11 02:48:52;;;;;;;2.50;1.30;;;;;;;-9.07;72.37;96579.62;110604;1274;22167;-77
2024/01/11 02:51:20;;;;;;;4.20;1.00;;;;;;;-9.20;72.72;96581.74;110560;1274;22125;-77
2024/01/11 02:53:48;;;;;;;1.20;1.00;;;;;;;-9.29;72.85;96579.00;110590;1274;22953;-77
2024/01/11 02:56:17;;;;;;;3.00;1.60;;;;;;;-9.32;73.32;96575.20;110617;1274;22172;-77
2024/01/11 02:58:45;;;;;;;4.10;1.90;;;;;;;-9.23;74.10;96573.17;110569;1274;22149;-77
2024/01/11 03:01:13;;;;;;;2.10;1.30;;;;;;;-9.11;74.01;96566.16;110563;1274;22111;-77
2024/01/11 03:03:42;;;;;;;8.30;4.60;;;;;;;-9.14;73.65;96562.91;110612;1274;22146;-77
2024/01/11 03:06:10;;;;;;;5.20;2.20;;;;;;;-9.17;73.83;96558.94;110586;1274;22135;-77
2024/01/11 03:08:38;;;;;;;60.50;24.20;;;;;;;-9.24;74.26;96556.75;110554;1274;22211;-77
2024/01/11 03:11:07;;;;;;;2.20;1.50;;;;;;;-9.32;74.20;96550.90;110529;1274;22183;-77
2024/01/11 03:13:35;;;;;;;3.10;1.60;;;;;;;-9.35;74.52;96555.10;110620;1274;22218;-77
2024/01/11 03:16:04;;;;;;;25.80;10.60;;;;;;;-9.28;74.60;96545.41;110631;1263;22109;-77
2024/01/11 03:18:33;;;;;;;3.30;1.80;;;;;;;-9.25;74.38;96542.23;110537;1274;22986;-77
2024/01/11 03:21:01;;;;;;;1.40;1.10;;;;;;;-9.24;74.03;96540.06;110608;1274;22202;-77
2024/01/11 03:23:29;;;;;;;1.50;0.90;;;;;;;-9.25;73.84;96537.78;110644;1274;22134;-77
2024/01/11 03:25:58;;;;;;;4.90;2.10;;;;;;;-9.28;73.78;96535.85;110545;1274;22112;-77
2024/01/11 03:28:26;;;;;;;1.00;0.70;;;;;;;-9.37;73.35;96534.50;110605;1274;22214;-77
2024/01/11 03:30:54;;;;;;;6.20;3.60;;;;;;;-9.45;73.38;96529.15;110601;1274;22189;-77
2024/01/11 03:33:22;;;;;;;1.50;0.90;;;;;;;-9.50;73.67;96525.74;110592;1274;22148;-77
2024/01/11 03:35:51;;;;;;;1.40;0.90;;;;;;;-9.47;74.22;96517.46;110612;1274;22208;-77
2024/01/11 03:38:19;;;;;;;2.20;1.20;;;;;;;-9.37;74.50;96520.05;110597;1266;22133;-77
2024/01/11 03:40:47;;;;;;;2.10;1.20;;;;;;;-9.25;74.55;96516.84;110555;1274;22264;-77
2024/01/11 03:43:17;;;;;;;2.70;1.20;;;;;;;-9.24;74.07;96510.07;110635;1274;22093;-77
2024/01/11 03:45:46;;;;;;;5.80;2.00;;;;;;;-9.16;74.37;96509.60;110623;1274;22156;-77
2024/01/11 03:48:14;;;;;;;6.50;3.40;;;;;;;-9.10;73.89;96507.10;110557;1274;22202;-76
2024/01/11 03:50:42;;;;;;;24.70;11.20;;;;;;;-9.07;73.72;96502.55;110515;1274;22138;-77
2024/01/11 03:53:10;;;;;;;24.10;11.00;;;;;;;-9.11;73.15;96502.92;110599;1274;23023;-77
2024/01/11 03:55:38;;;;;;;7.40;3.60;;;;;;;-9.23;73.33;96498.19;110584;1274;22087;-77
2024/01/11 03:58:06;;;;;;;2.20;0.90;;;;;;;-9.28;73.11;96494.58;110619;1274;22142;-77
2024/01/11 04:00:34;;;;;;;2.00;0.80;;;;;;;-9.30;73.24;96497.71;110623;1274;22356;-77
2024/01/11 04:03:03;;;;;;;0.90;0.80;;;;;;;-9.29;73.54;96495.88;110553;1274;22115;-77
2024/01/11 04:05:31;;;;;;;1.70;0.80;;;;;;;-9.35;73.37;96492.61;110633;1274;22117;-77
2024/01/11 04:07:59;;;;;;;1.20;0.80;;;;;;;-9.37;73.31;96491.79;110519;1274;22173;-77
2024/01/11 04:10:27;;;;;;;2.70;1.20;;;;;;;-9.45;73.11;96485.73;110542;1274;22920;-77
2024/01/11 04:12:56;;;;;;;13.60;7.00;;;;;;;-9.58;73.83;96486.33;110550;1274;22143;-77
2024/01/11 04:15:24;;;;;;;15.20;7.40;;;;;;;-9.60;74.15;96487.08;110615;1274;22117;-76
2024/01/11 04:17:52;;;;;;;4.40;2.10;;;;;;;-9.56;74.08;96492.10;110615;1274;22141;-75
2024/01/11 04:20:20;;;;;;;1.60;1.00;;;;;;;-9.42;74.55;96491.23;110611;1274;22916;-75
2024/01/11 04:22:49;;;;;;;2.50;1.10;;;;;;;-9.39;73.86;96491.84;110601;1274;22131;-75
2024/01/11 04:25:17;;;;;;;1.40;0.90;;;;;;;-9.46;73.34;96489.78;110532;1274;22176;-75
2024/01/11 04:27:45;;;;;;;2.80;1.10;;;;;;;-9.52;73.31;96491.91;110567;1274;22239;-76
2024/01/11 04:30:13;;;;;;;7.40;3.40;;;;;;;-9.69;73.52;96495.95;110564;1274;22872;-75
2024/01/11 04:32:42;;;;;;;83.20;30.30;;;;;;;-9.67;74.45;96494.74;110601;1274;22735;-76
2024/01/11 04:35:10;;;;;;;34.10;12.80;;;;;;;-9.71;73.68;96496.98;110584;1274;22123;-77
2024/01/11 04:37:39;;;;;;;34.00;12.80;;;;;;;-9.81;74.04;96497.13;110534;1274;22427;-77
2024/01/11 04:40:07;;;;;;;45.40;16.60;;;;;;;-9.76;74.60;96496.48;110510;1274;22142;-77
2024/01/11 04:42:35;;;;;;;36.50;13.50;;;;;;;-9.75;74.14;96499.04;110606;1274;23103;-77
2024/01/11 04:45:04;;;;;;;53.80;25.90;;;;;;;-9.73;74.23;96496.17;110584;1274;22127;-77
2024/01/11 04:47:33;;;;;;;98.70;33.00;;;;;;;-9.59;74.66;96494.79;110537;1274;22348;-77
2024/01/11 04:50:01;;;;;;;6.60;2.50;;;;;;;-9.47;74.46;96490.93;110583;1274;22154;-77
2024/01/11 04:52:29;;;;;;;2.00;1.20;;;;;;;-9.36;74.43;96488.58;110570;1274;22123;-78
2024/01/11 04:54:57;;;;;;;2.20;0.70;;;;;;;-9.36;73.70;96489.79;110631;1274;22163;-78
2024/01/11 04:57:26;;;;;;;47.00;18.80;;;;;;;-9.46;73.08;96490.27;110613;1274;22797;-78
2024/01/11 04:59:54;;;;;;;37.70;15.20;;;;;;;-9.67;73.04;96491.15;110586;1274;22453;-78
2024/01/11 05:02:22;;;;;;;32.40;13.70;;;;;;;-9.82;73.83;96494.88;110669;1274;22125;-78
2024/01/11 05:04:51;;;;;;;45.60;19.80;;;;;;;-9.78;74.37;96496.96;110585;1274;22189;-77
2024/01/11 05:07:19;;;;;;;14.10;6.90;;;;;;;-9.72;73.82;96496.89;110553;1274;22981;-77
2024/01/11 05:09:47;;;;;;;2.40;1.40;;;;;;;-9.71;73.98;96496.84;110602;1274;22168;-77
2024/01/11 05:12:16;;;;;;;4.60;2.10;;;;;;;-9.61;74.41;96496.67;110575;1274;22128;-77
2024/01/11 05:14:44;;;;;;;29.80;14.00;;;;;;;-9.52;73.94;96503.43;110625;1274;22861;-77
2024/01/11 05:17:13;;;;;;;3.90;1.40;;;;;;;-9.52;73.57;96502.30;110586;1274;22092;-77
2024/01/11 05:19:41;;;;;;;1.70;0.80;;;;;;;-9.45;73.68;96500.52;110597;1274;22206;-77
2024/01/11 05:22:09;;;;;;;20.40;10.90;;;;;;;-9.61;72.85;96506.17;110561;1274;22116;-77
2024/01/11 05:24:37;;;;;;;38.90;19.60;;;;;;;-9.95;73.02;96507.50;110622;1274;22304;-77
2024/01/11 05:27:06;;;;;;;43.90;23.50;;;;;;;-10.22;74.36;96508.19;110541;1274;22215;-77
2024/01/11 05:29:34;;;;;;;38.10;20.10;;;;;;;-10.33;74.49;96510.66;110598;1274;22123;-77
2024/01/11 05:32:03;;;;;;;39.10;21.00;;;;;;;-10.38;74.92;96513.38;110530;1274;22195;-77
2024/01/11 05:34:31;;;;;;;38.20;19.10;;;;;;;-10.27;75.31;96507.70;110602;1274;22786;-77
2024/01/11 05:36:59;;;;;;;3.90;2.20;;;;;;;-10.19;75.09;96502.80;110618;1274;22186;-77
2024/01/11 05:39:28;;;;;;;5.50;1.40;;;;;;;-10.04;75.28;96497.45;110570;1262;22917;-77
2024/01/11 05:41:56;;;;;;;1.40;1.00;;;;;;;-9.94;75.11;96492.10;110170;1274;571757;-77
2024/01/11 05:44:25;;;;;;;15.80;8.90;;;;;;;-9.78;75.38;96488.98;110610;1274;22130;-77
2024/01/11 05:46:53;;;;;;;14.80;7.20;;;;;;;-9.71;74.52;96490.89;110577;1274;22886;-78
2024/01/11 05:49:21;;;;;;;12.60;7.10;;;;;;;-9.67;74.19;96490.11;110580;1274;22125;-77
2024/01/11 05:51:50;;;;;;;16.50;8.90;;;;;;;-9.63;74.06;96490.13;110613;1274;22180;-77
2024/01/11 05:54:18;;;;;;;55.00;22.70;;;;;;;-9.65;73.79;96485.98;110593;1274;22672;-77
2024/01/11 05:56:46;;;;;;;62.70;24.10;;;;;;;-9.62;73.93;96481.63;110620;1274;22104;-77
2024/01/11 05:59:14;;;;;;;55.00;23.60;;;;;;;-9.61;73.52;96476.27;110569;1274;22214;-76
2024/01/11 06:01:43;;;;;;;67.60;27.00;;;;;;;-9.80;72.69;96470.32;110583;1274;22341;-77
2024/01/11 06:04:11;;;;;;;76.00;33.00;;;;;;;-10.01;73.27;96468.94;110539;1274;22271;-78
2024/01/11 06:06:40;;;;;;;82.20;34.90;;;;;;;-10.19;74.02;96470.98;110610;1274;22857;-79
2024/01/11 06:09:10;;;;;;;67.90;30.90;;;;;;;-10.18;74.75;96479.75;110567;1274;22146;-78
2024/01/11 06:11:38;;;;;;;49.10;18.70;;;;;;;-10.10;75.01;96473.92;110538;1274;22178;-78
2024/01/11 06:14:06;;;;;;;34.00;14.70;;;;;;;-9.91;75.24;96470.88;110600;1274;22926;-78
2024/01/11 06:16:34;;;;;;;71.00;28.60;;;;;;;-9.74;74.87;96466.95;110560;1274;22280;-78
2024/01/11 06:19:02;;;;;;;4.70;2.60;;;;;;;-9.67;74.34;96463.59;110612;1274;22127;-80
2024/01/11 06:21:31;;;;;;;2.00;1.10;;;;;;;-9.55;74.66;96459.13;110609;1274;22199;-79
2024/01/11 06:23:59;;;;;;;44.40;19.60;;;;;;;-9.52;73.70;96460.73;110589;1274;23168;-77
2024/01/11 06:26:27;;;;;;;56.80;26.90;;;;;;;-9.75;72.39;96464.34;110599;1274;22282;-76
2024/01/11 06:28:55;;;;;;;125.10;49.30;;;;;;;-9.96;72.58;96464.83;110587;1274;22225;-77
2024/01/11 06:31:24;;;;;;;87.00;38.40;;;;;;;-10.11;74.11;96464.67;110603;1274;22321;-79
2024/01/11 06:33:52;;;;;;;41.40;19.50;;;;;;;-10.10;74.00;96461.81;110593;1274;22116;-78
2024/01/11 06:36:20;;;;;;;8.20;3.90;;;;;;;-10.10;74.04;96453.96;110586;1274;22363;-77
2024/01/11 06:38:49;;;;;;;34.50;17.40;;;;;;;-10.02;74.61;96456.77;110592;1274;22109;-78
2024/01/11 06:41:18;;;;;;;41.90;23.80;;;;;;;-9.91;74.95;96461.99;110617;1274;23014;-77
2024/01/11 06:43:47;;;;;;;80.70;34.30;;;;;;;-9.78;74.42;96458.33;110631;1274;22100;-78
2024/01/11 06:46:21;;;;;;;41.80;19.10;;;;;;;-9.72;73.74;96452.31;110598;1274;22115;-77
2024/01/11 06:48:49;;;;;;;14.40;5.50;;;;;;;-9.65;74.04;96450.08;110558;1274;22104;-78
2024/01/11 06:51:21;;;;;;;81.00;37.30;;;;;;;-9.48;74.52;96443.80;110600;1274;22164;-78
2024/01/11 06:53:50;;;;;;;162.80;64.70;;;;;;;-9.34;74.26;96445.11;110592;1274;22143;-78
2024/01/11 06:56:20;;;;;;;216.30;81.50;;;;;;;-9.21;73.86;96446.05;110591;1274;22300;-79
2024/01/11 06:58:49;;;;;;;155.40;62.50;;;;;;;-9.08;73.38;96443.19;110595;1274;22132;-78
2024/01/11 07:01:18;;;;;;;71.10;31.40;;;;;;;-8.99;72.80;96438.54;110595;1274;22608;-78
2024/01/11 07:03:46;;;;;;;117.40;51.90;;;;;;;-8.93;72.98;96436.91;110605;1274;22127;-79
2024/01/11 07:06:15;;;;;;;88.40;38.20;;;;;;;-8.94;72.53;96442.65;110593;1274;22964;-77
2024/01/11 07:08:43;;;;;;;56.60;27.30;;;;;;;-8.97;73.20;96448.27;110601;1274;22122;-78
2024/01/11 07:11:12;;;;;;;55.70;26.20;;;;;;;-8.96;72.95;96455.09;110603;1274;22108;-77
2024/01/11 07:13:40;;;;;;;6.50;2.90;;;;;;;-8.98;73.04;96450.39;110587;1274;22267;-77
2024/01/11 07:16:09;;;;;;;0.90;0.60;;;;;;;-8.95;73.46;96451.30;110617;1263;22389;-77
2024/01/11 07:18:40;;;;;;;1.20;0.50;;;;;;;-8.84;73.50;96448.55;110549;1275;22209;-77
2024/01/11 07:21:08;;;;;;;13.00;7.40;;;;;;;-8.71;73.79;96455.23;110605;1274;22294;-77
2024/01/11 07:23:37;;;;;;;14.50;7.50;;;;;;;-8.68;73.57;96449.49;110546;1274;22772;-77
2024/01/11 07:26:05;;;;;;;109.80;53.80;;;;;;;-8.69;73.46;96441.92;110591;1263;23046;-77
2024/01/11 07:28:33;;;;;;;44.50;21.60;;;;;;;-8.67;74.17;96447.21;110571;1274;22177;-76
2024/01/11 07:31:02;;;;;;;46.90;24.50;;;;;;;-8.48;75.26;96448.32;110609;1274;22121;-78
2024/01/11 07:33:30;;;;;;;48.10;24.80;;;;;;;-8.18;75.13;96443.96;110571;1274;22148;-77
2024/01/11 07:35:59;;;;;;;39.70;19.90;;;;;;;-8.09;74.03;96438.77;110575;1274;22128;-76
2024/01/11 07:38:27;;;;;;;14.90;8.30;;;;;;;-8.11;73.69;96435.75;110609;1274;22118;-76
2024/01/11 07:40:55;;;;;;;26.70;12.90;;;;;;;-8.12;73.44;96426.80;110559;1274;22203;-77
2024/01/11 07:43:25;;;;;;;16.10;8.50;;;;;;;-8.12;73.41;96421.84;110582;1274;22382;-77
2024/01/11 07:46:03;;;;;;;25.60;13.70;;;;;;;-8.01;74.14;96417.59;110586;1274;22183;-77
2024/01/11 07:48:31;;;;;;;32.90;18.10;;;;;;;-7.90;74.15;96417.44;110604;1274;22131;-77
2024/01/11 07:51:00;;;;;;;49.30;22.20;;;;;;;-7.77;74.56;96414.17;110598;1274;22287;-76
2024/01/11 07:53:28;;;;;;;60.30;26.60;;;;;;;-7.56;74.27;96407.81;110589;1274;22826;-77
2024/01/11 07:55:57;;;;;;;66.00;29.60;;;;;;;-7.26;74.42;96402.52;110618;1274;22142;-77
2024/01/11 07:58:25;;;;;;;63.80;29.70;;;;;;;-6.96;73.22;96400.75;110596;1274;22991;-76
2024/01/11 08:00:54;;;;;;;59.20;27.20;;;;;;;-6.72;72.18;96389.73;110531;1274;22436;-77
2024/01/11 08:03:23;;;;;;;43.20;21.80;;;;;;;-6.58;71.10;96386.95;110620;1274;22136;-76
2024/01/11 08:05:51;;;;;;;46.50;20.60;;;;;;;-6.56;70.87;96382.80;110605;1274;22195;-77
2024/01/11 08:08:19;;;;;;;29.70;13.00;;;;;;;-6.51;70.40;96366.82;110621;1274;22175;-77
2024/01/11 08:10:49;;;;;;;30.60;15.80;;;;;;;-6.62;70.20;96368.75;110603;1274;22119;-77
2024/01/11 08:13:18;;;;;;;37.90;18.70;;;;;;;-6.66;71.14;96371.07;110612;1274;22172;-76
2024/01/11 08:15:47;;;;;;;33.70;14.90;;;;;;;-6.51;71.53;96358.61;110611;1274;22158;-76
2024/01/11 08:18:17;;;;;;;38.70;19.40;;;;;;;-6.38;70.71;96357.85;110601;1274;22941;-76
2024/01/11 08:20:46;;;;;;;46.50;22.80;;;;;;;-6.26;70.97;96358.00;110568;1274;22136;-76
2024/01/11 08:23:14;;;;;;;39.60;20.00;;;;;;;-6.14;71.12;96352.40;110611;1274;22997;-77
2024/01/11 08:25:42;;;;;;;45.70;18.70;;;;;;;-6.07;70.79;96350.89;110580;1274;23128;-77
2024/01/11 08:28:10;;;;;;;35.10;15.90;;;;;;;-6.07;70.62;96345.39;110614;1260;22122;-77
2024/01/11 08:30:39;;;;;;;36.10;19.00;;;;;;;-6.06;70.94;96347.30;110599;1274;22191;-77
2024/01/11 08:33:07;;;;;;;31.40;17.40;;;;;;;-5.96;71.67;96343.98;110597;1274;22340;-77
2024/01/11 08:35:35;;;;;;;31.00;18.30;;;;;;;-5.69;71.58;96349.20;110570;1274;23089;-77
2024/01/11 08:38:04;;;;;;;38.10;20.00;;;;;;;-5.48;70.56;96352.73;110605;1274;22128;-77
2024/01/11 08:40:33;;;;;;;37.30;21.00;;;;;;;-5.24;70.96;96349.59;110601;1274;22176;-77
2024/01/11 08:43:01;;;;;;;30.40;16.60;;;;;;;-5.01;70.22;96348.58;110591;1274;22119;-77
2024/01/11 08:45:29;;;;;;;29.60;15.00;;;;;;;-5.00;68.77;96344.85;110624;1274;22244;-77
2024/01/11 08:47:58;;;;;;;35.60;17.80;;;;;;;-5.23;69.60;96339.88;110611;1274;22493;-77
2024/01/11 08:50:26;;;;;;;32.30;19.10;;;;;;;-5.17;70.30;96336.58;110497;1275;22170;-77
2024/01/11 08:52:56;;;;;;;39.00;18.30;;;;;;;-5.12;70.33;96332.55;110539;1274;22276;-77
2024/01/11 08:55:26;;;;;;;39.50;19.40;;;;;;;-5.05;70.39;96331.05;110619;1274;22232;-76
2024/01/11 08:57:54;;;;;;;37.00;18.60;;;;;;;-4.96;70.92;96326.36;110614;1274;22128;-77
2024/01/11 09:00:22;;;;;;;36.30;18.50;;;;;;;-4.78;71.20;96320.09;110608;1274;22143;-76
2024/01/11 09:02:50;;;;;;;25.70;14.70;;;;;;;-4.57;69.74;96316.19;110579;1274;22296;-77
2024/01/11 09:05:19;;;;;;;47.60;22.80;;;;;;;-4.49;69.93;96312.14;110602;1274;22156;-77
2024/01/11 09:07:47;;;;;;;33.90;17.50;;;;;;;-4.38;69.96;96307.58;110621;1274;22141;-77
2024/01/11 09:10:18;;;;;;;40.60;19.60;;;;;;;-4.20;70.24;96304.31;110596;1274;22936;-77
2024/01/11 09:12:46;;;;;;;44.30;21.80;;;;;;;-3.91;69.34;96296.58;110624;1274;22148;-77
2024/01/11 09:15:14;;;;;;;34.90;17.50;;;;;;;-3.65;68.87;96288.17;110579;1274;22149;-76
2024/01/11 09:17:43;;;;;;;45.90;21.40;;;;;;;-3.58;68.63;96282.33;110545;1274;22991;-78
2024/01/11 09:20:14;;;;;;;41.10;21.00;;;;;;;-3.58;69.01;96280.61;110539;1275;22170;-78
2024/01/11 09:22:42;;;;;;;43.40;22.60;;;;;;;-3.49;69.47;96273.63;110585;1274;22188;-77
2024/01/11 09:25:10;;;;;;;42.00;19.40;;;;;;;-3.39;69.37;96265.33;110549;1274;22952;-77
2024/01/11 09:27:39;;;;;;;22.50;11.40;;;;;;;-3.40;67.35;96252.56;110568;1271;22454;-78
2024/01/11 09:30:07;;;;;;;14.80;8.60;;;;;;;-3.23;65.62;96246.25;110585;1274;22574;-79
2024/01/11 09:32:35;;;;;;;19.50;10.90;;;;;;;-2.98;64.86;96241.86;110566;1274;22732;-78
2024/01/11 09:35:04;;;;;;;12.60;7.30;;;;;;;-2.75;63.62;96234.41;110572;1274;23044;-79
2024/01/11 09:37:33;;;;;;;13.70;8.50;;;;;;;-2.59;60.95;96221.48;110589;1274;22150;-79
2024/01/11 09:40:01;;;;;;;16.10;8.30;;;;;;;-2.45;60.08;96212.09;110589;1274;22130;-80
2024/01/11 09:42:29;;;;;;;15.00;7.90;;;;;;;-2.32;59.27;96205.54;110618;1274;22790;-77
2024/01/11 09:44:58;;;;;;;22.70;10.80;;;;;;;-2.20;58.84;96203.94;110581;1275;23219;-77
2024/01/11 09:47:28;;;;;;;19.80;10.50;;;;;;;-2.12;58.80;96201.50;110603;1274;22184;-78
2024/01/11 09:49:58;;;;;;;18.20;9.00;;;;;;;-2.06;58.15;96193.65;110578;1274;22280;-77
2024/01/11 09:52:28;;;;;;;16.00;7.90;;;;;;;-2.01;58.12;96184.88;110570;1274;22172;-77
2024/01/11 09:54:56;;;;;;;19.50;8.80;;;;;;;-1.89;57.85;96175.66;110517;1275;22303;-76
2024/01/11 09:57:29;;;;;;;15.60;8.00;;;;;;;-1.76;57.45;96175.66;110599;1274;23124;-77
2024/01/11 09:59:58;;;;;;;19.20;9.80;;;;;;;-1.53;56.68;96170.98;110593;1274;22143;-76
2024/01/11 10:02:26;;;;;;;14.60;6.50;;;;;;;-1.16;55.87;96161.27;110576;1274;23033;-78
2024/01/11 10:04:55;;;;;;;15.10;8.00;;;;;;;-0.76;53.33;96149.52;110581;1275;22137;-77
2024/01/11 10:07:24;;;;;;;11.70;6.50;;;;;;;-0.38;52.73;96144.05;110609;1274;22167;-77
2024/01/11 10:09:53;;;;;;;9.70;5.10;;;;;;;-0.03;50.64;96135.63;110551;1275;22899;-77
2024/01/11 10:12:24;;;;;;;11.40;6.70;;;;;;;0.44;50.79;96136.00;110564;1274;22448;-76
2024/01/11 10:14:53;;;;;;;15.90;8.60;;;;;;;0.82;50.64;96128.95;110559;1274;22142;-77
2024/01/11 10:17:22;;;;;;;12.90;8.10;;;;;;;1.17;49.79;96114.27;110601;1275;22143;-77
2024/01/11 10:19:54;;;;;;;16.20;8.10;;;;;;;1.45;49.74;96107.69;110505;1274;22172;-77
2024/01/11 10:22:22;;;;;;;15.70;8.70;;;;;;;1.61;48.23;96107.59;110550;1274;22126;-77
2024/01/11 10:25:11;;;;;;;15.20;9.20;;;;;;;1.85;47.85;96103.10;110564;1274;22182;-77
2024/01/11 10:27:42;;;;;;;19.50;11.20;;;;;;;2.19;47.63;96101.26;110491;1274;22320;-77
2024/01/11 10:30:16;;;;;;;21.60;11.30;;;;;;;2.46;46.75;96099.75;110472;1274;22151;-76
2024/01/11 10:32:46;;;;;;;15.30;9.10;;;;;;;2.62;46.79;96098.53;110472;1274;22187;-77
2024/01/11 10:35:18;;;;;;;16.50;9.40;;;;;;;2.93;46.66;96097.91;110551;1274;23069;-77
2024/01/11 10:37:53;;;;;;;15.90;9.60;;;;;;;3.00;45.07;96098.02;110559;1275;22939;-77
2024/01/11 10:40:25;;;;;;;14.10;8.80;;;;;;;3.25;45.72;96087.90;110582;1275;22132;-78
2024/01/11 10:42:58;;;;;;;18.60;11.40;;;;;;;3.62;45.40;96088.01;110535;1274;22199;-78
2024/01/11 10:45:27;;;;;;;17.50;9.90;;;;;;;4.02;45.27;96073.80;110514;1274;23099;-78
2024/01/11 10:48:01;;;;;;;14.50;9.30;;;;;;;4.25;43.65;96067.86;110427;1274;22326;-78
2024/01/11 10:50:37;;;;;;;13.40;8.50;;;;;;;4.29;41.96;96064.96;110512;1275;22219;-78
2024/01/11 10:53:21;;;;;;;14.60;8.70;;;;;;;4.59;42.56;96056.27;110509;1275;22779;-78
2024/01/11 10:55:50;;;;;;;11.90;8.00;;;;;;;4.98;42.20;96045.02;110519;1274;22314;-78
2024/01/11 10:58:20;;;;;;;11.90;7.80;;;;;;;5.39;40.14;96041.39;110603;1274;23057;-78
2024/01/11 11:00:54;;;;;;;12.70;7.80;;;;;;;5.75;40.18;96032.09;110615;1274;22130;-79
2024/01/11 11:03:25;;;;;;;9.60;7.10;;;;;;;6.05;38.87;96024.45;110605;1275;22924;-79
2024/01/11 11:05:57;;;;;;;8.10;6.20;;;;;;;6.19;36.82;96025.06;110542;1274;22270;-79
2024/01/11 11:08:27;;;;;;;9.10;6.70;;;;;;;6.26;36.23;96020.03;110541;1275;23076;-79
2024/01/11 11:11:03;;;;;;;9.30;6.40;;;;;;;6.21;35.65;96016.68;110525;1274;22131;-78
2024/01/11 11:13:34;;;;;;;11.40;6.10;;;;;;;6.26;35.58;96005.01;110530;1275;22927;-79
2024/01/11 11:16:06;;;;;;;10.50;6.60;;;;;;;6.45;35.73;95998.09;110532;1275;22211;-78
2024/01/11 11:18:37;;;;;;;8.80;6.40;;;;;;;6.50;34.63;96000.92;110508;1275;22770;-79
2024/01/11 11:21:11;;;;;;;7.30;5.40;;;;;;;6.40;35.00;95996.84;110566;1274;22894;-77
2024/01/11 11:23:39;;;;;;;9.60;6.20;;;;;;;6.32;35.28;95997.35;110504;1275;22762;-79
2024/01/11 11:26:15;;;;;;;9.20;6.70;;;;;;;6.23;34.17;95994.16;110565;1274;22125;-79